District Heights, Maryland
Current Conditions -  °F | °C
As of 5:58 PM on Thursday 27 Nov 2014 (Local Time) from KADW Reporting Station
Overcast Overcast  
Wind Chill: 36°   Ceiling: 6000
Heat Index: 40°   Visibility: 10mi
Dew Point: 28°   Wind: 7mph
Humidity: 61%   Direction: 300°WNW
Pressure: 30.1"   Gusts: NA
Location:  38.86°N, 76.88°W
Report Text: KADW 272258Z AUTO 30006KT 10SM OVC060 05/M02 A3010 RMK AO2 SLP202 T00461024 $
Loading
Personal Weather Stations






























Interactive Weather Map New forecast layout! Learn more

10-Day Weather Forecast

Advertisements
Track Severe Weather on mobile